Kenneth Carl — WDF8246 — position and weather

sailwx.info

Track history (hours):
 
Tides and Currents Weather Stations Pressure Air Temp Water Temp Dewpoint Dewpoint Depression Visibility Wind Speed Wind Dir Waves Ship Positions

Kenneth Carl

Owner: So. Cal. Ship Services, Inc., San Pedro, CA. More information available from US FCC via Universal Licensing System and Coast Guard Vessel Documentation Center.

Last reported at 2014-Nov-28 00:23 UTC. Time now 2014-Nov-28 01:35 UTC.
Position N 33°41' W 118°13'.

Length 31 m; draft 3 m.

Type: Ship. MMSI: 367492920.

Date/timePositionNaut miles runAvg speedWind from/ knotsBaromVisibWave heightAir tempDewpointWater temp
2014-Nov-28 00:23N 33°41' W 118°13'7 8.7
2014-Nov-27 23:33N 33°35' W 118°08'0 0.1
2014-Nov-27 22:33N 33°35' W 118°08'0 0.0
2014-Nov-27 21:33N 33°35' W 118°08'0 0.0
2014-Nov-27 20:33N 33°35' W 118°08'0 0.0
2014-Nov-27 19:34N 33°35' W 118°08'0 0.4
2014-Nov-27 18:33N 33°35' W 118°08'2 2.3
2014-Nov-27 17:33N 33°36' W 118°10'9 9.2
2014-Nov-27 16:33N 33°44' W 118°16'1 0.6
2014-Nov-27 15:33N 33°44' W 118°16'0 0.0
2014-Nov-27 14:33N 33°44' W 118°16'0 0.4
2014-Nov-27 13:33N 33°44' W 118°16'1110.6
2014-Nov-27 12:33N 33°36' W 118°08'1 0.7
2014-Nov-27 11:34N 33°35' W 118°08'0 0.0
2014-Nov-27 10:33N 33°35' W 118°08'0 0.3
2014-Nov-27 09:33N 33°35' W 118°08'1010.5
2014-Nov-27 08:34N 33°43' W 118°16'1 1.0
2014-Nov-27 07:33N 33°44' W 118°16'0 0.0
2014-Nov-27 06:32N 33°44' W 118°16'6 6.3
2014-Nov-27 05:33N 33°40' W 118°11'5 5.5
2014-Nov-27 04:34N 33°35' W 118°08'0 0.0
2014-Nov-27 03:33N 33°35' W 118°08'6 6.0
2014-Nov-27 02:31N 33°40' W 118°12'1 0.4
2014-Nov-26 23:06N 33°41' W 118°13'5 8.9
2014-Nov-26 22:34N 33°37' W 118°10'3 2.8
2014-Nov-26 21:34N 33°35' W 118°08'0 0.1
2014-Nov-26 20:33N 33°35' W 118°08'0 0.0
2014-Nov-26 19:33N 33°35' W 118°08'0 0.0
2014-Nov-26 18:33N 33°35' W 118°08'0 0.0
2014-Nov-26 17:33N 33°35' W 118°08'0 0.0
2014-Nov-26 16:33N 33°35' W 118°08'1 1.1
2014-Nov-26 15:33N 33°34' W 118°07'4 4.1
2014-Nov-26 14:33N 33°37' W 118°10'9 8.5
2014-Nov-26 13:33N 33°44' W 118°16'0 0.0
2014-Nov-26 12:33N 33°44' W 118°16'0 0.0
2014-Nov-26 11:33N 33°44' W 118°16'0 0.0
2014-Nov-26 10:30N 33°44' W 118°16'0 0.0
2014-Nov-26 09:30N 33°44' W 118°16'0 0.0
2014-Nov-26 08:18N 33°44' W 118°16'0 0.0
2014-Nov-26 07:30N 33°44' W 118°16'0 0.0
2014-Nov-26 06:33N 33°44' W 118°16'0 0.0
2014-Nov-26 05:33N 33°44' W 118°16'0 0.0
2014-Nov-26 04:33N 33°44' W 118°16'0 0.0
2014-Nov-26 03:31N 33°44' W 118°16'0 0.0
2014-Nov-26 02:06N 33°44' W 118°16'12 2.0
2014-Nov-25 20:15N 33°35' W 118°08'1 1.6
2014-Nov-25 19:32N 33°34' W 118°07'0 0.1
2014-Nov-25 18:32N 33°34' W 118°07'0 0.0
2014-Nov-25 17:33N 33°34' W 118°07'4 4.3
2014-Nov-25 16:33N 33°37' W 118°10'5 0.7
2014-Nov-25 10:16N 33°41' W 118°13'810.6
2014-Nov-25 09:33N 33°35' W 118°08'0 0.2
2014-Nov-25 08:33N 33°35' W 118°08'0 0.0
2014-Nov-25 07:33N 33°35' W 118°08'0 0.0
2014-Nov-25 06:30N 33°35' W 118°08'0 0.0
2014-Nov-25 05:33N 33°35' W 118°08'9 6.5
2014-Nov-25 04:06N 33°42' W 118°15'2 0.4
2014-Nov-24 23:33N 33°44' W 118°16'3 3.0
2014-Nov-24 22:32N 33°42' W 118°14'8 8.5
2014-Nov-24 21:33N 33°35' W 118°08'1 1.0
2014-Nov-24 20:33N 33°34' W 118°07'0 0.2
2014-Nov-24 19:33N 33°34' W 118°07'1 0.8
2014-Nov-24 18:33N 33°35' W 118°08'0 0.0
2014-Nov-24 17:33N 33°35' W 118°08'0 0.0
2014-Nov-24 16:33N 33°35' W 118°08'0 0.0
2014-Nov-24 15:33N 33°35' W 118°08'8 7.9
2014-Nov-24 14:33N 33°41' W 118°14'4 3.7
2014-Nov-24 13:33N 33°44' W 118°16'0 0.0
2014-Nov-24 12:33N 33°44' W 118°16'0 0.0
2014-Nov-24 11:33N 33°44' W 118°16'7 7.2
2014-Nov-24 10:33N 33°38' W 118°11'4 4.4
2014-Nov-24 09:33N 33°35' W 118°08'0 0.0
2014-Nov-24 08:33N 33°35' W 118°08'8 8.3
2014-Nov-24 07:32N 33°42' W 118°14'3 2.6
2014-Nov-24 06:20N 33°44' W 118°16'8 4.6
2014-Nov-24 04:33N 33°37' W 118°11'4 3.5
2014-Nov-24 03:33N 33°35' W 118°08'0 0.1
2014-Nov-24 02:33N 33°35' W 118°08'0 0.0
2014-Nov-24 01:21N 33°35' W 118°08'0 0.0
2014-Nov-24 00:33N 33°35' W 118°08'0 0.0
2014-Nov-23 23:33N 33°35' W 118°08'0 0.2
2014-Nov-23 22:33N 33°35' W 118°08'0 0.0
2014-Nov-23 21:33N 33°35' W 118°08'0 0.0
2014-Nov-23 20:33N 33°35' W 118°08'0 0.0
2014-Nov-23 19:33N 33°35' W 118°08'0 0.0
2014-Nov-23 18:33N 33°35' W 118°08'0 0.0
2014-Nov-23 17:33N 33°35' W 118°08'0 0.0
2014-Nov-23 15:30N 33°35' W 118°08'0 0.0
2014-Nov-23 07:23N 33°35' W 118°08'0 0.0
2014-Nov-23 06:33N 33°35' W 118°08'0 0.1
2014-Nov-23 05:32N 33°35' W 118°08'9 7.5
2014-Nov-23 04:21N 33°42' W 118°14'3 3.2
2014-Nov-23 03:32N 33°44' W 118°16'0 0.0
2014-Nov-23 02:32N 33°44' W 118°16'0 0.0
2014-Nov-23 01:33N 33°44' W 118°16'6 6.5
2014-Nov-23 00:33N 33°39' W 118°11'5 5.1
2014-Nov-22 23:33N 33°35' W 118°08'0 0.1
2014-Nov-22 22:33N 33°35' W 118°08'0 0.0
2014-Nov-22 21:33N 33°35' W 118°08'0 0.1
2014-Nov-22 20:33N 33°35' W 118°08'0 0.0
2014-Nov-22 19:33N 33°35' W 118°08'0 0.0
2014-Nov-22 18:26N 33°35' W 118°08'0 0.0
2014-Nov-22 13:27N 33°35' W 118°08'0 0.0
2014-Nov-22 12:20N 33°35' W 118°08'0 0.0
2014-Nov-22 11:15N 33°35' W 118°08'12 0.3
2014-Nov-20 22:32N 33°44' W 118°16'1 0.1
2014-Nov-20 12:33N 33°43' W 118°15'10 4.8
2014-Nov-20 10:26N 33°35' W 118°08'0 0.2
2014-Nov-20 09:32N 33°35' W 118°08'0 0.0
2014-Nov-20 08:33N 33°35' W 118°08'0 0.0
2014-Nov-20 07:33N 33°35' W 118°08'0 0.0
2014-Nov-20 06:33N 33°35' W 118°08'2 2.3
2014-Nov-20 05:33N 33°37' W 118°09'9 9.5
2014-Nov-20 04:33N 33°44' W 118°16'0 0.0
2014-Nov-20 03:33N 33°44' W 118°16'0 0.0
2014-Nov-20 02:33N 33°44' W 118°16'0 0.0
2014-Nov-20 01:33N 33°44' W 118°16'12 5.8
2014-Nov-19 23:33N 33°35' W 118°08'0 0.4
2014-Nov-19 22:33N 33°35' W 118°07'0 0.3
2014-Nov-19 21:33N 33°35' W 118°08'0 0.2
2014-Nov-19 20:33N 33°35' W 118°08'0 0.0
2014-Nov-19 19:32N 33°35' W 118°08'0 0.0
2014-Nov-19 18:28N 33°35' W 118°08'0 0.0
2014-Nov-19 17:33N 33°35' W 118°08'0 0.1
2014-Nov-19 16:33N 33°35' W 118°08'1 1.1
2014-Nov-19 15:33N 33°34' W 118°07'1010.3
2014-Nov-19 14:33N 33°42' W 118°15'2 2.2
2014-Nov-19 13:25N 33°44' W 118°16'0 0.0
2014-Nov-19 12:23N 33°44' W 118°16'0 0.0
2014-Nov-19 11:33N 33°44' W 118°16'1 1.4
2014-Nov-19 10:33N 33°43' W 118°15'10 9.8
2014-Nov-19 09:33N 33°35' W 118°08'0 0.4
2014-Nov-19 08:33N 33°35' W 118°08'0 0.2
2014-Nov-19 07:33N 33°35' W 118°08'0 0.1
2014-Nov-19 06:33N 33°35' W 118°08'0 0.2
2014-Nov-19 05:33N 33°35' W 118°08'1 1.2
2014-Nov-19 04:33N 33°34' W 118°07'1 1.2
2014-Nov-19 03:33N 33°35' W 118°08'0 0.0
2014-Nov-19 02:33N 33°35' W 118°08'0 0.0
2014-Nov-19 01:33N 33°35' W 118°08'0 0.0
2014-Nov-19 00:33N 33°35' W 118°08'0 0.0
2014-Nov-18 23:33N 33°35' W 118°08'0 0.0
2014-Nov-18 22:33N 33°35' W 118°08'0 0.0
2014-Nov-18 21:33N 33°35' W 118°08'0 0.2
2014-Nov-18 20:33N 33°35' W 118°08'1 1.3
2014-Nov-18 19:33N 33°34' W 118°07'0 0.0
2014-Nov-18 18:33N 33°34' W 118°07'1 1.2
2014-Nov-18 17:33N 33°35' W 118°08'7 6.9
2014-Nov-18 16:33N 33°40' W 118°13'5 4.7
2014-Nov-18 15:33N 33°44' W 118°16'0 0.0
2014-Nov-18 14:32N 33°44' W 118°16'0 0.0
2014-Nov-18 13:32N 33°44' W 118°16'0 0.0
2014-Nov-18 12:29N 33°44' W 118°16'0 0.0
2014-Nov-18 11:33N 33°44' W 118°16'0 0.0
2014-Nov-18 10:33N 33°44' W 118°16'5 4.7
2014-Nov-18 09:33N 33°40' W 118°13'7 7.0
2014-Nov-18 08:33N 33°35' W 118°08'0 0.0
2014-Nov-18 07:33N 33°35' W 118°08'9 8.5
2014-Nov-18 06:33N 33°42' W 118°14'3 3.1
2014-Nov-18 05:33N 33°44' W 118°16'0 0.0
2014-Nov-18 04:33N 33°44' W 118°16'7 7.2
2014-Nov-18 03:33N 33°38' W 118°11'4 4.4
2014-Nov-18 02:33N 33°35' W 118°08'0 0.2
2014-Nov-18 01:33N 33°35' W 118°08'0 0.2
2014-Nov-18 00:33N 33°35' W 118°08'  
Track history (hours):
 
Tides and Currents Weather Stations Pressure Air Temp Water Temp Dewpoint Dewpoint Depression Visibility Wind Speed Wind Dir Waves Ship Positions

Kenneth Carl

Owner: So. Cal. Ship Services, Inc., San Pedro, CA. More information available from US FCC via Universal Licensing System and Coast Guard Vessel Documentation Center.

Last reported at 2014-Nov-28 00:23 UTC. Time now 2014-Nov-28 01:35 UTC.
Position N 33°41' W 118°13'.

Length 31 m; draft 3 m.

Type: Ship. MMSI: 367492920.

Date/timePositionNaut miles runAvg speedWind from/ knotsBaromVisibWave heightAir tempDewpointWater temp
2014-Nov-28 00:23N 33°41' W 118°13'7 8.7
2014-Nov-27 23:33N 33°35' W 118°08'0 0.1
2014-Nov-27 22:33N 33°35' W 118°08'0 0.0
2014-Nov-27 21:33N 33°35' W 118°08'0 0.0
2014-Nov-27 20:33N 33°35' W 118°08'0 0.0
2014-Nov-27 19:34N 33°35' W 118°08'0 0.4
2014-Nov-27 18:33N 33°35' W 118°08'2 2.3
2014-Nov-27 17:33N 33°36' W 118°10'9 9.2
2014-Nov-27 16:33N 33°44' W 118°16'1 0.6
2014-Nov-27 15:33N 33°44' W 118°16'0 0.0
2014-Nov-27 14:33N 33°44' W 118°16'0 0.4
2014-Nov-27 13:33N 33°44' W 118°16'1110.6
2014-Nov-27 12:33N 33°36' W 118°08'1 0.7
2014-Nov-27 11:34N 33°35' W 118°08'0 0.0
2014-Nov-27 10:33N 33°35' W 118°08'0 0.3
2014-Nov-27 09:33N 33°35' W 118°08'1010.5
2014-Nov-27 08:34N 33°43' W 118°16'1 1.0
2014-Nov-27 07:33N 33°44' W 118°16'0 0.0
2014-Nov-27 06:32N 33°44' W 118°16'6 6.3
2014-Nov-27 05:33N 33°40' W 118°11'5 5.5
2014-Nov-27 04:34N 33°35' W 118°08'0 0.0
2014-Nov-27 03:33N 33°35' W 118°08'6 6.0
2014-Nov-27 02:31N 33°40' W 118°12'1 0.4
2014-Nov-26 23:06N 33°41' W 118°13'5 8.9
2014-Nov-26 22:34N 33°37' W 118°10'3 2.8
2014-Nov-26 21:34N 33°35' W 118°08'0 0.1
2014-Nov-26 20:33N 33°35' W 118°08'0 0.0
2014-Nov-26 19:33N 33°35' W 118°08'0 0.0
2014-Nov-26 18:33N 33°35' W 118°08'0 0.0
2014-Nov-26 17:33N 33°35' W 118°08'0 0.0
2014-Nov-26 16:33N 33°35' W 118°08'1 1.1
2014-Nov-26 15:33N 33°34' W 118°07'4 4.1
2014-Nov-26 14:33N 33°37' W 118°10'9 8.5
2014-Nov-26 13:33N 33°44' W 118°16'0 0.0
2014-Nov-26 12:33N 33°44' W 118°16'0 0.0
2014-Nov-26 11:33N 33°44' W 118°16'0 0.0
2014-Nov-26 10:30N 33°44' W 118°16'0 0.0
2014-Nov-26 09:30N 33°44' W 118°16'0 0.0
2014-Nov-26 08:18N 33°44' W 118°16'0 0.0
2014-Nov-26 07:30N 33°44' W 118°16'0 0.0
2014-Nov-26 06:33N 33°44' W 118°16'0 0.0
2014-Nov-26 05:33N 33°44' W 118°16'0 0.0
2014-Nov-26 04:33N 33°44' W 118°16'0 0.0
2014-Nov-26 03:31N 33°44' W 118°16'0 0.0
2014-Nov-26 02:06N 33°44' W 118°16'12 2.0
2014-Nov-25 20:15N 33°35' W 118°08'1 1.6
2014-Nov-25 19:32N 33°34' W 118°07'0 0.1
2014-Nov-25 18:32N 33°34' W 118°07'0 0.0
2014-Nov-25 17:33N 33°34' W 118°07'4 4.3
2014-Nov-25 16:33N 33°37' W 118°10'5 0.7
2014-Nov-25 10:16N 33°41' W 118°13'810.6
2014-Nov-25 09:33N 33°35' W 118°08'0 0.2
2014-Nov-25 08:33N 33°35' W 118°08'0 0.0
2014-Nov-25 07:33N 33°35' W 118°08'0 0.0
2014-Nov-25 06:30N 33°35' W 118°08'0 0.0
2014-Nov-25 05:33N 33°35' W 118°08'9 6.5
2014-Nov-25 04:06N 33°42' W 118°15'2 0.4
2014-Nov-24 23:33N 33°44' W 118°16'3 3.0
2014-Nov-24 22:32N 33°42' W 118°14'8 8.5
2014-Nov-24 21:33N 33°35' W 118°08'1 1.0
2014-Nov-24 20:33N 33°34' W 118°07'0 0.2
2014-Nov-24 19:33N 33°34' W 118°07'1 0.8
2014-Nov-24 18:33N 33°35' W 118°08'0 0.0
2014-Nov-24 17:33N 33°35' W 118°08'0 0.0
2014-Nov-24 16:33N 33°35' W 118°08'0 0.0
2014-Nov-24 15:33N 33°35' W 118°08'8 7.9
2014-Nov-24 14:33N 33°41' W 118°14'4 3.7
2014-Nov-24 13:33N 33°44' W 118°16'0 0.0
2014-Nov-24 12:33N 33°44' W 118°16'0 0.0
2014-Nov-24 11:33N 33°44' W 118°16'7 7.2
2014-Nov-24 10:33N 33°38' W 118°11'4 4.4
2014-Nov-24 09:33N 33°35' W 118°08'0 0.0
2014-Nov-24 08:33N 33°35' W 118°08'8 8.3
2014-Nov-24 07:32N 33°42' W 118°14'3 2.6
2014-Nov-24 06:20N 33°44' W 118°16'8 4.6
2014-Nov-24 04:33N 33°37' W 118°11'4 3.5
2014-Nov-24 03:33N 33°35' W 118°08'0 0.1
2014-Nov-24 02:33N 33°35' W 118°08'0 0.0
2014-Nov-24 01:21N 33°35' W 118°08'0 0.0
2014-Nov-24 00:33N 33°35' W 118°08'0 0.0
2014-Nov-23 23:33N 33°35' W 118°08'0 0.2
2014-Nov-23 22:33N 33°35' W 118°08'0 0.0
2014-Nov-23 21:33N 33°35' W 118°08'0 0.0
2014-Nov-23 20:33N 33°35' W 118°08'0 0.0
2014-Nov-23 19:33N 33°35' W 118°08'0 0.0
2014-Nov-23 18:33N 33°35' W 118°08'0 0.0
2014-Nov-23 17:33N 33°35' W 118°08'0 0.0
2014-Nov-23 15:30N 33°35' W 118°08'0 0.0
2014-Nov-23 07:23N 33°35' W 118°08'0 0.0
2014-Nov-23 06:33N 33°35' W 118°08'0 0.1
2014-Nov-23 05:32N 33°35' W 118°08'9 7.5
2014-Nov-23 04:21N 33°42' W 118°14'3 3.2
2014-Nov-23 03:32N 33°44' W 118°16'0 0.0
2014-Nov-23 02:32N 33°44' W 118°16'0 0.0
2014-Nov-23 01:33N 33°44' W 118°16'6 6.5
2014-Nov-23 00:33N 33°39' W 118°11'5 5.1
2014-Nov-22 23:33N 33°35' W 118°08'0 0.1
2014-Nov-22 22:33N 33°35' W 118°08'0 0.0
2014-Nov-22 21:33N 33°35' W 118°08'0 0.1
2014-Nov-22 20:33N 33°35' W 118°08'0 0.0
2014-Nov-22 19:33N 33°35' W 118°08'0 0.0
2014-Nov-22 18:26N 33°35' W 118°08'0 0.0
2014-Nov-22 13:27N 33°35' W 118°08'0 0.0
2014-Nov-22 12:20N 33°35' W 118°08'0 0.0
2014-Nov-22 11:15N 33°35' W 118°08'12 0.3
2014-Nov-20 22:32N 33°44' W 118°16'1 0.1
2014-Nov-20 12:33N 33°43' W 118°15'10 4.8
2014-Nov-20 10:26N 33°35' W 118°08'0 0.2
2014-Nov-20 09:32N 33°35' W 118°08'0 0.0
2014-Nov-20 08:33N 33°35' W 118°08'0 0.0
2014-Nov-20 07:33N 33°35' W 118°08'0 0.0
2014-Nov-20 06:33N 33°35' W 118°08'2 2.3
2014-Nov-20 05:33N 33°37' W 118°09'9 9.5
2014-Nov-20 04:33N 33°44' W 118°16'0 0.0
2014-Nov-20 03:33N 33°44' W 118°16'0 0.0
2014-Nov-20 02:33N 33°44' W 118°16'0 0.0
2014-Nov-20 01:33N 33°44' W 118°16'12 5.8
2014-Nov-19 23:33N 33°35' W 118°08'0 0.4
2014-Nov-19 22:33N 33°35' W 118°07'0 0.3
2014-Nov-19 21:33N 33°35' W 118°08'0 0.2
2014-Nov-19 20:33N 33°35' W 118°08'0 0.0
2014-Nov-19 19:32N 33°35' W 118°08'0 0.0
2014-Nov-19 18:28N 33°35' W 118°08'0 0.0
2014-Nov-19 17:33N 33°35' W 118°08'0 0.1
2014-Nov-19 16:33N 33°35' W 118°08'1 1.1
2014-Nov-19 15:33N 33°34' W 118°07'1010.3
2014-Nov-19 14:33N 33°42' W 118°15'2 2.2
2014-Nov-19 13:25N 33°44' W 118°16'0 0.0
2014-Nov-19 12:23N 33°44' W 118°16'0 0.0
2014-Nov-19 11:33N 33°44' W 118°16'1 1.4
2014-Nov-19 10:33N 33°43' W 118°15'10 9.8
2014-Nov-19 09:33N 33°35' W 118°08'0 0.4
2014-Nov-19 08:33N 33°35' W 118°08'0 0.2
2014-Nov-19 07:33N 33°35' W 118°08'0 0.1
2014-Nov-19 06:33N 33°35' W 118°08'0 0.2
2014-Nov-19 05:33N 33°35' W 118°08'1 1.2
2014-Nov-19 04:33N 33°34' W 118°07'1 1.2
2014-Nov-19 03:33N 33°35' W 118°08'0 0.0
2014-Nov-19 02:33N 33°35' W 118°08'0 0.0
2014-Nov-19 01:33N 33°35' W 118°08'0 0.0
2014-Nov-19 00:33N 33°35' W 118°08'0 0.0
2014-Nov-18 23:33N 33°35' W 118°08'0 0.0
2014-Nov-18 22:33N 33°35' W 118°08'0 0.0
2014-Nov-18 21:33N 33°35' W 118°08'0 0.2
2014-Nov-18 20:33N 33°35' W 118°08'1 1.3
2014-Nov-18 19:33N 33°34' W 118°07'0 0.0
2014-Nov-18 18:33N 33°34' W 118°07'1 1.2
2014-Nov-18 17:33N 33°35' W 118°08'7 6.9
2014-Nov-18 16:33N 33°40' W 118°13'5 4.7
2014-Nov-18 15:33N 33°44' W 118°16'0 0.0
2014-Nov-18 14:32N 33°44' W 118°16'0 0.0
2014-Nov-18 13:32N 33°44' W 118°16'0 0.0
2014-Nov-18 12:29N 33°44' W 118°16'0 0.0
2014-Nov-18 11:33N 33°44' W 118°16'0 0.0
2014-Nov-18 10:33N 33°44' W 118°16'5 4.7
2014-Nov-18 09:33N 33°40' W 118°13'7 7.0
2014-Nov-18 08:33N 33°35' W 118°08'0 0.0
2014-Nov-18 07:33N 33°35' W 118°08'9 8.5
2014-Nov-18 06:33N 33°42' W 118°14'3 3.1
2014-Nov-18 05:33N 33°44' W 118°16'0 0.0
2014-Nov-18 04:33N 33°44' W 118°16'7 7.2
2014-Nov-18 03:33N 33°38' W 118°11'4 4.4
2014-Nov-18 02:33N 33°35' W 118°08'0 0.2
2014-Nov-18 01:33N 33°35' W 118°08'0 0.2
2014-Nov-18 00:33N 33°35' W 118°08'  

Dump ship's entire track history